sensor_id;sensor_type;location;lat;lon;timestamp;P1;durP1;ratioP1;P2;durP2;ratioP2
43580;SDS011;29175;51.030;4.606;2024-03-02T00:01:26;1.45;;;1.10;;
43580;SDS011;29175;51.030;4.606;2024-03-02T00:03:53;3.42;;;1.38;;
43580;SDS011;29175;51.030;4.606;2024-03-02T00:06:21;1.30;;;1.15;;
43580;SDS011;29175;51.030;4.606;2024-03-02T00:08:47;2.65;;;1.60;;
43580;SDS011;29175;51.030;4.606;2024-03-02T00:11:13;1.00;;;1.00;;
43580;SDS011;29175;51.030;4.606;2024-03-02T00:13:44;1.20;;;1.10;;
43580;SDS011;29175;51.030;4.606;2024-03-02T00:16:11;1.88;;;1.65;;
43580;SDS011;29175;51.030;4.606;2024-03-02T00:18:38;1.70;;;1.50;;
43580;SDS011;29175;51.030;4.606;2024-03-02T00:21:05;1.83;;;1.20;;
43580;SDS011;29175;51.030;4.606;2024-03-02T00:23:35;1.40;;;1.30;;
43580;SDS011;29175;51.030;4.606;2024-03-02T00:26:02;1.45;;;1.30;;
43580;SDS011;29175;51.030;4.606;2024-03-02T00:28:30;1.42;;;1.33;;
43580;SDS011;29175;51.030;4.606;2024-03-02T00:31:05;1.30;;;1.20;;
43580;SDS011;29175;51.030;4.606;2024-03-02T00:33:36;1.52;;;1.35;;
43580;SDS011;29175;51.030;4.606;2024-03-02T00:36:05;1.52;;;1.10;;
43580;SDS011;29175;51.030;4.606;2024-03-02T00:38:33;1.95;;;1.20;;
43580;SDS011;29175;51.030;4.606;2024-03-02T00:41:08;2.28;;;1.30;;
43580;SDS011;29175;51.030;4.606;2024-03-02T00:46:26;1.65;;;1.10;;
43580;SDS011;29175;51.030;4.606;2024-03-02T00:49:00;1.38;;;1.20;;
43580;SDS011;29175;51.030;4.606;2024-03-02T00:51:28;1.20;;;1.10;;
43580;SDS011;29175;51.030;4.606;2024-03-02T00:53:57;1.65;;;1.08;;
43580;SDS011;29175;51.030;4.606;2024-03-02T00:56:25;2.28;;;1.40;;
43580;SDS011;29175;51.030;4.606;2024-03-02T00:58:51;2.50;;;1.10;;
43580;SDS011;29175;51.030;4.606;2024-03-02T01:01:20;1.63;;;1.10;;
43580;SDS011;29175;51.030;4.606;2024-03-02T01:03:47;1.20;;;1.10;;
43580;SDS011;29175;51.030;4.606;2024-03-02T01:06:14;1.48;;;1.20;;
43580;SDS011;29175;51.030;4.606;2024-03-02T01:08:41;3.08;;;1.35;;
43580;SDS011;29175;51.030;4.606;2024-03-02T01:11:08;1.80;;;1.20;;
43580;SDS011;29175;51.030;4.606;2024-03-02T01:13:37;1.20;;;1.10;;
43580;SDS011;29175;51.030;4.606;2024-03-02T01:16:03;1.63;;;1.33;;
43580;SDS011;29175;51.030;4.606;2024-03-02T01:18:30;1.90;;;1.10;;
43580;SDS011;29175;51.030;4.606;2024-03-02T01:20:57;2.95;;;1.20;;
43580;SDS011;29175;51.030;4.606;2024-03-02T01:23:24;1.10;;;1.00;;
43580;SDS011;29175;51.030;4.606;2024-03-02T01:25:50;1.27;;;1.00;;
43580;SDS011;29175;51.030;4.606;2024-03-02T01:28:18;1.20;;;1.10;;
43580;SDS011;29175;51.030;4.606;2024-03-02T01:30:45;1.75;;;1.30;;
43580;SDS011;29175;51.030;4.606;2024-03-02T01:33:13;1.10;;;1.10;;
43580;SDS011;29175;51.030;4.606;2024-03-02T01:35:42;1.10;;;1.00;;
43580;SDS011;29175;51.030;4.606;2024-03-02T01:38:08;1.40;;;1.10;;
43580;SDS011;29175;51.030;4.606;2024-03-02T01:40:34;1.00;;;0.90;;
43580;SDS011;29175;51.030;4.606;2024-03-02T01:42:59;1.20;;;1.10;;
43580;SDS011;29175;51.030;4.606;2024-03-02T01:45:26;1.38;;;1.27;;
43580;SDS011;29175;51.030;4.606;2024-03-02T01:47:52;3.28;;;1.65;;
43580;SDS011;29175;51.030;4.606;2024-03-02T01:50:29;2.58;;;1.17;;
43580;SDS011;29175;51.030;4.606;2024-03-02T01:52:57;1.30;;;1.20;;
43580;SDS011;29175;51.030;4.606;2024-03-02T01:55:25;1.88;;;1.30;;
43580;SDS011;29175;51.030;4.606;2024-03-02T01:57:53;1.92;;;1.20;;
43580;SDS011;29175;51.030;4.606;2024-03-02T02:00:20;2.15;;;1.05;;
43580;SDS011;29175;51.030;4.606;2024-03-02T02:02:46;3.55;;;1.40;;
43580;SDS011;29175;51.030;4.606;2024-03-02T02:05:17;2.22;;;1.38;;
43580;SDS011;29175;51.030;4.606;2024-03-02T02:07:43;1.40;;;1.13;;
43580;SDS011;29175;51.030;4.606;2024-03-02T02:10:09;2.15;;;1.20;;
43580;SDS011;29175;51.030;4.606;2024-03-02T02:12:36;4.57;;;1.05;;
43580;SDS011;29175;51.030;4.606;2024-03-02T02:15:04;1.33;;;1.10;;
43580;SDS011;29175;51.030;4.606;2024-03-02T02:20:15;2.15;;;1.33;;
43580;SDS011;29175;51.030;4.606;2024-03-02T02:22:53;4.97;;;1.45;;
43580;SDS011;29175;51.030;4.606;2024-03-02T02:25:26;5.22;;;1.33;;
43580;SDS011;29175;51.030;4.606;2024-03-02T02:27:53;1.80;;;1.10;;
43580;SDS011;29175;51.030;4.606;2024-03-02T02:30:24;2.85;;;1.17;;
43580;SDS011;29175;51.030;4.606;2024-03-02T02:32:54;6.47;;;1.30;;
43580;SDS011;29175;51.030;4.606;2024-03-02T02:35:23;2.72;;;1.60;;
43580;SDS011;29175;51.030;4.606;2024-03-02T02:37:50;1.53;;;1.40;;
43580;SDS011;29175;51.030;4.606;2024-03-02T02:40:17;2.25;;;1.23;;
43580;SDS011;29175;51.030;4.606;2024-03-02T02:42:47;2.60;;;1.63;;
43580;SDS011;29175;51.030;4.606;2024-03-02T02:45:13;2.80;;;1.50;;
43580;SDS011;29175;51.030;4.606;2024-03-02T02:47:41;2.83;;;1.10;;
43580;SDS011;29175;51.030;4.606;2024-03-02T02:50:09;3.33;;;1.40;;
43580;SDS011;29175;51.030;4.606;2024-03-02T02:52:39;4.85;;;1.40;;
43580;SDS011;29175;51.030;4.606;2024-03-02T02:55:06;1.98;;;1.40;;
43580;SDS011;29175;51.030;4.606;2024-03-02T02:57:33;3.20;;;1.40;;
43580;SDS011;29175;51.030;4.606;2024-03-02T03:00:07;2.88;;;1.38;;
43580;SDS011;29175;51.030;4.606;2024-03-02T03:02:40;1.35;;;1.15;;
43580;SDS011;29175;51.030;4.606;2024-03-02T03:05:09;2.47;;;1.45;;
43580;SDS011;29175;51.030;4.606;2024-03-02T03:07:38;4.15;;;1.30;;
43580;SDS011;29175;51.030;4.606;2024-03-02T03:10:05;2.00;;;1.30;;
43580;SDS011;29175;51.030;4.606;2024-03-02T03:12:37;5.38;;;1.90;;
43580;SDS011;29175;51.030;4.606;2024-03-02T03:15:04;4.70;;;1.40;;
43580;SDS011;29175;51.030;4.606;2024-03-02T03:17:32;2.50;;;1.30;;
43580;SDS011;29175;51.030;4.606;2024-03-02T03:19:58;4.80;;;1.50;;
43580;SDS011;29175;51.030;4.606;2024-03-02T03:22:25;2.53;;;1.27;;
43580;SDS011;29175;51.030;4.606;2024-03-02T03:24:50;3.92;;;1.85;;
43580;SDS011;29175;51.030;4.606;2024-03-02T03:29:46;4.13;;;1.38;;
43580;SDS011;29175;51.030;4.606;2024-03-02T03:32:12;2.88;;;1.45;;
43580;SDS011;29175;51.030;4.606;2024-03-02T03:34:39;5.65;;;1.60;;
43580;SDS011;29175;51.030;4.606;2024-03-02T03:37:06;3.65;;;1.40;;
43580;SDS011;29175;51.030;4.606;2024-03-02T03:39:34;3.90;;;1.48;;
43580;SDS011;29175;51.030;4.606;2024-03-02T03:42:01;4.10;;;1.65;;
43580;SDS011;29175;51.030;4.606;2024-03-02T03:44:30;5.10;;;1.63;;
43580;SDS011;29175;51.030;4.606;2024-03-02T03:46:56;1.50;;;1.40;;
43580;SDS011;29175;51.030;4.606;2024-03-02T03:49:23;3.65;;;1.63;;
43580;SDS011;29175;51.030;4.606;2024-03-02T03:51:49;4.75;;;1.33;;
43580;SDS011;29175;51.030;4.606;2024-03-02T03:54:14;2.17;;;1.40;;
43580;SDS011;29175;51.030;4.606;2024-03-02T03:56:41;6.22;;;1.30;;
43580;SDS011;29175;51.030;4.606;2024-03-02T03:59:08;4.60;;;1.52;;
43580;SDS011;29175;51.030;4.606;2024-03-02T04:01:36;1.88;;;1.30;;
43580;SDS011;29175;51.030;4.606;2024-03-02T04:04:04;3.30;;;1.50;;
43580;SDS011;29175;51.030;4.606;2024-03-02T04:06:30;2.45;;;1.30;;
43580;SDS011;29175;51.030;4.606;2024-03-02T04:08:57;2.42;;;1.50;;
43580;SDS011;29175;51.030;4.606;2024-03-02T04:11:23;5.20;;;1.50;;
43580;SDS011;29175;51.030;4.606;2024-03-02T04:13:50;6.25;;;1.65;;
43580;SDS011;29175;51.030;4.606;2024-03-02T04:16:16;2.67;;;1.45;;
43580;SDS011;29175;51.030;4.606;2024-03-02T04:18:42;5.38;;;1.80;;
43580;SDS011;29175;51.030;4.606;2024-03-02T04:21:08;4.20;;;1.58;;
43580;SDS011;29175;51.030;4.606;2024-03-02T04:23:34;5.68;;;1.77;;
43580;SDS011;29175;51.030;4.606;2024-03-02T04:26:00;4.18;;;1.55;;
43580;SDS011;29175;51.030;4.606;2024-03-02T04:28:26;4.30;;;1.33;;
43580;SDS011;29175;51.030;4.606;2024-03-02T04:30:52;2.97;;;1.40;;
43580;SDS011;29175;51.030;4.606;2024-03-02T04:33:18;6.50;;;1.45;;
43580;SDS011;29175;51.030;4.606;2024-03-02T04:35:43;2.50;;;1.40;;
43580;SDS011;29175;51.030;4.606;2024-03-02T04:38:09;5.68;;;1.80;;
43580;SDS011;29175;51.030;4.606;2024-03-02T04:40:35;6.15;;;1.63;;
43580;SDS011;29175;51.030;4.606;2024-03-02T04:43:02;2.00;;;1.40;;
43580;SDS011;29175;51.030;4.606;2024-03-02T04:45:30;3.83;;;1.60;;
43580;SDS011;29175;51.030;4.606;2024-03-02T04:47:57;2.22;;;1.40;;
43580;SDS011;29175;51.030;4.606;2024-03-02T04:50:24;4.93;;;1.45;;
43580;SDS011;29175;51.030;4.606;2024-03-02T04:52:50;2.47;;;1.40;;
43580;SDS011;29175;51.030;4.606;2024-03-02T04:55:16;7.05;;;1.50;;
43580;SDS011;29175;51.030;4.606;2024-03-02T04:57:43;2.90;;;1.83;;
43580;SDS011;29175;51.030;4.606;2024-03-02T05:00:09;5.88;;;1.58;;
43580;SDS011;29175;51.030;4.606;2024-03-02T05:02:35;6.55;;;1.73;;
43580;SDS011;29175;51.030;4.606;2024-03-02T05:05:01;4.95;;;1.77;;
43580;SDS011;29175;51.030;4.606;2024-03-02T05:07:28;2.42;;;1.70;;
43580;SDS011;29175;51.030;4.606;2024-03-02T05:09:54;4.63;;;1.50;;
43580;SDS011;29175;51.030;4.606;2024-03-02T05:12:20;2.38;;;1.50;;
43580;SDS011;29175;51.030;4.606;2024-03-02T05:15:04;9.77;;;1.70;;
43580;SDS011;29175;51.030;4.606;2024-03-02T05:17:33;3.53;;;1.65;;
43580;SDS011;29175;51.030;4.606;2024-03-02T05:19:59;5.32;;;1.85;;
43580;SDS011;29175;51.030;4.606;2024-03-02T05:22:27;3.15;;;1.60;;
43580;SDS011;29175;51.030;4.606;2024-03-02T05:24:53;5.60;;;1.70;;
43580;SDS011;29175;51.030;4.606;2024-03-02T05:27:19;4.93;;;2.00;;
43580;SDS011;29175;51.030;4.606;2024-03-02T05:29:45;6.47;;;1.88;;
43580;SDS011;29175;51.030;4.606;2024-03-02T05:32:11;2.70;;;2.00;;
43580;SDS011;29175;51.030;4.606;2024-03-02T05:34:37;5.72;;;1.90;;
43580;SDS011;29175;51.030;4.606;2024-03-02T05:37:03;5.72;;;2.10;;
43580;SDS011;29175;51.030;4.606;2024-03-02T05:39:29;3.72;;;1.75;;
43580;SDS011;29175;51.030;4.606;2024-03-02T05:44:26;6.38;;;2.13;;
43580;SDS011;29175;51.030;4.606;2024-03-02T05:46:52;4.18;;;1.60;;
43580;SDS011;29175;51.030;4.606;2024-03-02T05:49:20;5.15;;;1.50;;
43580;SDS011;29175;51.030;4.606;2024-03-02T05:51:48;3.22;;;1.60;;
43580;SDS011;29175;51.030;4.606;2024-03-02T05:54:15;3.13;;;1.80;;
43580;SDS011;29175;51.030;4.606;2024-03-02T05:56:41;1.70;;;1.60;;
43580;SDS011;29175;51.030;4.606;2024-03-02T05:59:13;3.53;;;1.55;;
43580;SDS011;29175;51.030;4.606;2024-03-02T06:01:42;3.42;;;1.63;;
43580;SDS011;29175;51.030;4.606;2024-03-02T06:04:10;4.70;;;1.60;;
43580;SDS011;29175;51.030;4.606;2024-03-02T06:06:36;3.70;;;1.65;;
43580;SDS011;29175;51.030;4.606;2024-03-02T06:09:02;5.55;;;1.80;;
43580;SDS011;29175;51.030;4.606;2024-03-02T06:11:38;3.85;;;2.00;;
43580;SDS011;29175;51.030;4.606;2024-03-02T06:14:05;2.45;;;1.60;;
43580;SDS011;29175;51.030;4.606;2024-03-02T06:19:02;2.63;;;1.88;;
43580;SDS011;29175;51.030;4.606;2024-03-02T06:21:28;5.00;;;2.60;;
43580;SDS011;29175;51.030;4.606;2024-03-02T06:23:55;3.53;;;1.88;;
43580;SDS011;29175;51.030;4.606;2024-03-02T06:26:22;4.63;;;2.25;;
43580;SDS011;29175;51.030;4.606;2024-03-02T06:28:50;8.07;;;2.30;;
43580;SDS011;29175;51.030;4.606;2024-03-02T06:31:16;5.78;;;2.05;;
43580;SDS011;29175;51.030;4.606;2024-03-02T06:33:42;4.85;;;2.20;;
43580;SDS011;29175;51.030;4.606;2024-03-02T06:36:10;8.90;;;2.35;;
43580;SDS011;29175;51.030;4.606;2024-03-02T06:38:37;8.77;;;1.90;;
43580;SDS011;29175;51.030;4.606;2024-03-02T06:41:03;5.43;;;2.13;;
43580;SDS011;29175;51.030;4.606;2024-03-02T06:43:28;10.98;;;1.80;;
43580;SDS011;29175;51.030;4.606;2024-03-02T06:45:54;5.03;;;2.38;;
43580;SDS011;29175;51.030;4.606;2024-03-02T06:48:20;5.60;;;2.17;;
43580;SDS011;29175;51.030;4.606;2024-03-02T06:50:47;5.95;;;1.73;;
43580;SDS011;29175;51.030;4.606;2024-03-02T06:53:14;6.22;;;2.00;;
43580;SDS011;29175;51.030;4.606;2024-03-02T06:55:44;10.55;;;2.38;;
43580;SDS011;29175;51.030;4.606;2024-03-02T06:58:11;4.65;;;1.95;;
43580;SDS011;29175;51.030;4.606;2024-03-02T07:00:38;7.18;;;2.08;;
43580;SDS011;29175;51.030;4.606;2024-03-02T07:03:03;4.65;;;2.30;;
43580;SDS011;29175;51.030;4.606;2024-03-02T07:07:58;3.63;;;2.00;;
43580;SDS011;29175;51.030;4.606;2024-03-02T07:10:25;8.05;;;2.13;;
43580;SDS011;29175;51.030;4.606;2024-03-02T07:12:52;9.50;;;2.30;;
43580;SDS011;29175;51.030;4.606;2024-03-02T07:15:21;4.90;;;1.80;;
43580;SDS011;29175;51.030;4.606;2024-03-02T07:17:53;2.90;;;2.25;;
43580;SDS011;29175;51.030;4.606;2024-03-02T07:20:19;7.18;;;1.95;;
43580;SDS011;29175;51.030;4.606;2024-03-02T07:22:46;8.93;;;2.10;;
43580;SDS011;29175;51.030;4.606;2024-03-02T07:25:14;5.28;;;1.90;;
43580;SDS011;29175;51.030;4.606;2024-03-02T07:27:40;4.88;;;2.13;;
43580;SDS011;29175;51.030;4.606;2024-03-02T07:32:38;4.32;;;2.17;;
43580;SDS011;29175;51.030;4.606;2024-03-02T07:37:34;9.80;;;2.23;;
43580;SDS011;29175;51.030;4.606;2024-03-02T07:40:00;7.00;;;2.80;;
43580;SDS011;29175;51.030;4.606;2024-03-02T07:42:26;8.35;;;2.05;;
43580;SDS011;29175;51.030;4.606;2024-03-02T07:44:54;6.75;;;1.88;;
43580;SDS011;29175;51.030;4.606;2024-03-02T07:47:21;4.18;;;2.17;;
43580;SDS011;29175;51.030;4.606;2024-03-02T07:49:48;6.72;;;2.03;;
43580;SDS011;29175;51.030;4.606;2024-03-02T07:52:14;5.85;;;2.10;;
43580;SDS011;29175;51.030;4.606;2024-03-02T07:54:41;7.82;;;2.47;;
43580;SDS011;29175;51.030;4.606;2024-03-02T07:57:07;6.15;;;2.10;;
43580;SDS011;29175;51.030;4.606;2024-03-02T07:59:34;6.60;;;1.63;;
43580;SDS011;29175;51.030;4.606;2024-03-02T08:02:02;3.63;;;2.10;;
43580;SDS011;29175;51.030;4.606;2024-03-02T08:04:28;7.93;;;1.90;;
43580;SDS011;29175;51.030;4.606;2024-03-02T08:06:56;7.72;;;1.92;;
43580;SDS011;29175;51.030;4.606;2024-03-02T08:09:23;7.97;;;2.10;;
43580;SDS011;29175;51.030;4.606;2024-03-02T08:11:49;4.70;;;1.80;;
43580;SDS011;29175;51.030;4.606;2024-03-02T08:14:14;8.52;;;1.95;;
43580;SDS011;29175;51.030;4.606;2024-03-02T08:16:40;8.27;;;1.98;;
43580;SDS011;29175;51.030;4.606;2024-03-02T08:19:08;5.55;;;1.58;;
43580;SDS011;29175;51.030;4.606;2024-03-02T08:21:35;4.90;;;1.50;;
43580;SDS011;29175;51.030;4.606;2024-03-02T08:24:02;8.77;;;1.58;;
43580;SDS011;29175;51.030;4.606;2024-03-02T08:26:28;4.78;;;1.60;;
43580;SDS011;29175;51.030;4.606;2024-03-02T08:28:57;5.55;;;2.08;;
43580;SDS011;29175;51.030;4.606;2024-03-02T08:31:23;10.95;;;2.17;;
43580;SDS011;29175;51.030;4.606;2024-03-02T08:33:49;7.90;;;1.70;;
43580;SDS011;29175;51.030;4.606;2024-03-02T08:36:15;5.05;;;1.60;;
43580;SDS011;29175;51.030;4.606;2024-03-02T08:38:41;3.78;;;1.52;;
43580;SDS011;29175;51.030;4.606;2024-03-02T08:41:07;5.97;;;1.70;;
43580;SDS011;29175;51.030;4.606;2024-03-02T08:43:32;3.17;;;1.20;;
43580;SDS011;29175;51.030;4.606;2024-03-02T08:45:58;2.92;;;1.50;;
43580;SDS011;29175;51.030;4.606;2024-03-02T08:48:24;6.18;;;1.38;;
43580;SDS011;29175;51.030;4.606;2024-03-02T08:50:50;4.38;;;1.55;;
43580;SDS011;29175;51.030;4.606;2024-03-02T08:53:15;4.68;;;1.50;;
43580;SDS011;29175;51.030;4.606;2024-03-02T08:55:45;5.80;;;1.50;;
43580;SDS011;29175;51.030;4.606;2024-03-02T08:58:11;6.07;;;1.70;;
43580;SDS011;29175;51.030;4.606;2024-03-02T09:00:37;4.20;;;1.65;;
43580;SDS011;29175;51.030;4.606;2024-03-02T09:03:03;8.20;;;1.60;;
43580;SDS011;29175;51.030;4.606;2024-03-02T09:05:29;5.25;;;1.67;;
43580;SDS011;29175;51.030;4.606;2024-03-02T09:07:54;8.60;;;1.80;;
43580;SDS011;29175;51.030;4.606;2024-03-02T09:10:20;4.07;;;1.65;;
43580;SDS011;29175;51.030;4.606;2024-03-02T09:12:46;9.02;;;2.25;;
43580;SDS011;29175;51.030;4.606;2024-03-02T09:15:13;9.02;;;1.88;;
43580;SDS011;29175;51.030;4.606;2024-03-02T09:17:39;10.10;;;1.65;;
43580;SDS011;29175;51.030;4.606;2024-03-02T09:20:05;5.25;;;1.50;;
43580;SDS011;29175;51.030;4.606;2024-03-02T09:22:31;4.53;;;1.50;;
43580;SDS011;29175;51.030;4.606;2024-03-02T09:24:57;4.40;;;1.60;;
43580;SDS011;29175;51.030;4.606;2024-03-02T09:27:23;5.93;;;1.90;;
43580;SDS011;29175;51.030;4.606;2024-03-02T09:29:49;2.95;;;1.42;;
43580;SDS011;29175;51.030;4.606;2024-03-02T09:32:15;8.70;;;1.73;;
43580;SDS011;29175;51.030;4.606;2024-03-02T09:34:40;6.05;;;1.50;;
43580;SDS011;29175;51.030;4.606;2024-03-02T09:37:06;3.95;;;1.60;;
43580;SDS011;29175;51.030;4.606;2024-03-02T09:39:32;6.10;;;1.58;;
43580;SDS011;29175;51.030;4.606;2024-03-02T09:41:58;5.93;;;1.58;;
43580;SDS011;29175;51.030;4.606;2024-03-02T09:44:26;8.63;;;1.50;;
43580;SDS011;29175;51.030;4.606;2024-03-02T09:46:52;7.35;;;1.63;;
43580;SDS011;29175;51.030;4.606;2024-03-02T09:49:18;4.28;;;1.73;;
43580;SDS011;29175;51.030;4.606;2024-03-02T09:51:47;3.97;;;1.52;;
43580;SDS011;29175;51.030;4.606;2024-03-02T09:54:18;6.13;;;1.63;;
43580;SDS011;29175;51.030;4.606;2024-03-02T09:56:44;4.70;;;1.75;;
43580;SDS011;29175;51.030;4.606;2024-03-02T09:59:10;5.40;;;1.60;;
43580;SDS011;29175;51.030;4.606;2024-03-02T10:01:37;4.88;;;1.52;;
43580;SDS011;29175;51.030;4.606;2024-03-02T10:04:02;6.10;;;1.80;;
43580;SDS011;29175;51.030;4.606;2024-03-02T10:06:30;5.35;;;1.70;;
43580;SDS011;29175;51.030;4.606;2024-03-02T10:08:56;6.25;;;2.35;;
43580;SDS011;29175;51.030;4.606;2024-03-02T10:11:25;3.67;;;1.35;;
43580;SDS011;29175;51.030;4.606;2024-03-02T10:16:39;4.72;;;1.60;;
43580;SDS011;29175;51.030;4.606;2024-03-02T10:19:19;7.95;;;1.90;;
43580;SDS011;29175;51.030;4.606;2024-03-02T10:21:52;10.65;;;2.08;;
43580;SDS011;29175;51.030;4.606;2024-03-02T10:24:19;4.70;;;1.75;;
43580;SDS011;29175;51.030;4.606;2024-03-02T10:26:47;6.25;;;1.65;;
43580;SDS011;29175;51.030;4.606;2024-03-02T10:29:15;4.15;;;1.52;;
43580;SDS011;29175;51.030;4.606;2024-03-02T10:31:42;8.10;;;1.45;;
43580;SDS011;29175;51.030;4.606;2024-03-02T10:34:11;8.18;;;1.73;;
43580;SDS011;29175;51.030;4.606;2024-03-02T10:36:42;7.45;;;1.70;;
43580;SDS011;29175;51.030;4.606;2024-03-02T10:39:09;5.72;;;1.60;;
43580;SDS011;29175;51.030;4.606;2024-03-02T10:41:36;10.85;;;2.03;;
43580;SDS011;29175;51.030;4.606;2024-03-02T10:44:03;7.40;;;1.50;;
43580;SDS011;29175;51.030;4.606;2024-03-02T10:46:36;5.90;;;1.80;;
43580;SDS011;29175;51.030;4.606;2024-03-02T10:49:03;4.47;;;1.58;;
43580;SDS011;29175;51.030;4.606;2024-03-02T10:51:30;5.88;;;2.17;;
43580;SDS011;29175;51.030;4.606;2024-03-02T10:53:58;6.30;;;1.70;;
43580;SDS011;29175;51.030;4.606;2024-03-02T10:56:29;5.68;;;1.60;;
43580;SDS011;29175;51.030;4.606;2024-03-02T10:59:01;7.28;;;1.73;;
43580;SDS011;29175;51.030;4.606;2024-03-02T11:01:31;8.68;;;1.98;;
43580;SDS011;29175;51.030;4.606;2024-03-02T11:03:58;7.72;;;1.60;;
43580;SDS011;29175;51.030;4.606;2024-03-02T11:06:25;10.02;;;2.03;;
43580;SDS011;29175;51.030;4.606;2024-03-02T11:08:53;5.35;;;1.45;;
43580;SDS011;29175;51.030;4.606;2024-03-02T11:11:27;5.32;;;1.50;;
43580;SDS011;29175;51.030;4.606;2024-03-02T11:13:57;5.53;;;1.73;;
43580;SDS011;29175;51.030;4.606;2024-03-02T11:16:34;6.32;;;1.60;;
43580;SDS011;29175;51.030;4.606;2024-03-02T11:19:03;6.40;;;1.30;;
43580;SDS011;29175;51.030;4.606;2024-03-02T11:21:33;5.22;;;1.50;;
43580;SDS011;29175;51.030;4.606;2024-03-02T11:23:59;7.85;;;1.30;;
43580;SDS011;29175;51.030;4.606;2024-03-02T11:26:27;7.60;;;1.55;;
43580;SDS011;29175;51.030;4.606;2024-03-02T11:28:53;8.88;;;1.40;;
43580;SDS011;29175;51.030;4.606;2024-03-02T11:31:22;6.78;;;1.30;;
43580;SDS011;29175;51.030;4.606;2024-03-02T11:33:48;7.28;;;1.52;;
43580;SDS011;29175;51.030;4.606;2024-03-02T11:36:15;6.72;;;2.08;;
43580;SDS011;29175;51.030;4.606;2024-03-02T11:38:42;7.95;;;1.80;;
43580;SDS011;29175;51.030;4.606;2024-03-02T11:41:10;6.47;;;1.55;;
43580;SDS011;29175;51.030;4.606;2024-03-02T11:43:39;10.05;;;1.88;;
43580;SDS011;29175;51.030;4.606;2024-03-02T11:46:07;11.00;;;2.22;;
43580;SDS011;29175;51.030;4.606;2024-03-02T11:51:02;6.18;;;1.50;;
43580;SDS011;29175;51.030;4.606;2024-03-02T11:53:31;7.25;;;1.50;;
43580;SDS011;29175;51.030;4.606;2024-03-02T11:56:01;8.93;;;2.10;;
43580;SDS011;29175;51.030;4.606;2024-03-02T11:58:28;6.72;;;1.60;;
43580;SDS011;29175;51.030;4.606;2024-03-02T12:00:54;6.85;;;1.70;;
43580;SDS011;29175;51.030;4.606;2024-03-02T12:03:22;4.22;;;1.48;;
43580;SDS011;29175;51.030;4.606;2024-03-02T12:05:50;7.32;;;2.10;;
43580;SDS011;29175;51.030;4.606;2024-03-02T12:08:20;9.10;;;1.90;;
43580;SDS011;29175;51.030;4.606;2024-03-02T12:10:59;3.40;;;1.60;;
43580;SDS011;29175;51.030;4.606;2024-03-02T12:13:26;6.75;;;1.67;;
43580;SDS011;29175;51.030;4.606;2024-03-02T12:15:53;8.43;;;1.50;;
43580;SDS011;29175;51.030;4.606;2024-03-02T12:18:24;6.10;;;1.60;;
43580;SDS011;29175;51.030;4.606;2024-03-02T12:20:51;3.53;;;1.67;;
43580;SDS011;29175;51.030;4.606;2024-03-02T12:23:18;3.78;;;1.60;;
43580;SDS011;29175;51.030;4.606;2024-03-02T12:25:44;2.67;;;1.40;;
43580;SDS011;29175;51.030;4.606;2024-03-02T12:28:11;8.20;;;2.00;;
43580;SDS011;29175;51.030;4.606;2024-03-02T12:30:38;4.18;;;1.50;;
43580;SDS011;29175;51.030;4.606;2024-03-02T12:33:05;3.38;;;1.35;;
43580;SDS011;29175;51.030;4.606;2024-03-02T12:35:32;9.35;;;1.70;;
43580;SDS011;29175;51.030;4.606;2024-03-02T12:37:57;7.13;;;1.70;;
43580;SDS011;29175;51.030;4.606;2024-03-02T12:40:23;6.57;;;1.70;;
43580;SDS011;29175;51.030;4.606;2024-03-02T12:42:51;11.32;;;2.00;;
43580;SDS011;29175;51.030;4.606;2024-03-02T12:45:17;8.90;;;1.50;;
43580;SDS011;29175;51.030;4.606;2024-03-02T12:47:49;11.85;;;1.98;;
43580;SDS011;29175;51.030;4.606;2024-03-02T12:52:51;7.18;;;1.70;;
43580;SDS011;29175;51.030;4.606;2024-03-02T12:55:20;3.25;;;1.40;;
43580;SDS011;29175;51.030;4.606;2024-03-02T12:57:49;7.40;;;1.55;;
43580;SDS011;29175;51.030;4.606;2024-03-02T13:00:21;6.22;;;2.00;;
43580;SDS011;29175;51.030;4.606;2024-03-02T13:02:47;6.35;;;1.50;;
43580;SDS011;29175;51.030;4.606;2024-03-02T13:05:16;5.75;;;1.40;;
43580;SDS011;29175;51.030;4.606;2024-03-02T13:07:42;4.60;;;1.35;;
43580;SDS011;29175;51.030;4.606;2024-03-02T13:10:12;5.28;;;1.27;;
43580;SDS011;29175;51.030;4.606;2024-03-02T13:12:40;7.97;;;1.88;;
43580;SDS011;29175;51.030;4.606;2024-03-02T13:15:08;7.40;;;1.67;;
43580;SDS011;29175;51.030;4.606;2024-03-02T13:17:37;9.73;;;1.85;;
43580;SDS011;29175;51.030;4.606;2024-03-02T13:20:04;4.90;;;1.88;;
43580;SDS011;29175;51.030;4.606;2024-03-02T13:22:36;7.97;;;1.40;;
43580;SDS011;29175;51.030;4.606;2024-03-02T13:25:02;5.65;;;1.50;;
43580;SDS011;29175;51.030;4.606;2024-03-02T13:27:30;2.88;;;1.60;;
43580;SDS011;29175;51.030;4.606;2024-03-02T13:29:59;3.78;;;1.20;;
43580;SDS011;29175;51.030;4.606;2024-03-02T13:32:27;4.72;;;1.35;;
43580;SDS011;29175;51.030;4.606;2024-03-02T13:34:54;4.25;;;1.38;;
43580;SDS011;29175;51.030;4.606;2024-03-02T13:37:23;4.35;;;1.52;;
43580;SDS011;29175;51.030;4.606;2024-03-02T13:39:50;7.27;;;1.70;;
43580;SDS011;29175;51.030;4.606;2024-03-02T13:42:16;6.05;;;1.50;;
43580;SDS011;29175;51.030;4.606;2024-03-02T13:44:46;7.13;;;1.60;;
43580;SDS011;29175;51.030;4.606;2024-03-02T13:47:14;4.47;;;1.42;;
43580;SDS011;29175;51.030;4.606;2024-03-02T13:49:42;8.70;;;1.63;;
43580;SDS011;29175;51.030;4.606;2024-03-02T13:52:12;6.28;;;1.75;;
43580;SDS011;29175;51.030;4.606;2024-03-02T13:54:39;4.95;;;1.50;;
43580;SDS011;29175;51.030;4.606;2024-03-02T13:57:07;3.63;;;1.73;;
43580;SDS011;29175;51.030;4.606;2024-03-02T13:59:35;4.15;;;1.20;;
43580;SDS011;29175;51.030;4.606;2024-03-02T14:02:03;7.10;;;1.60;;
43580;SDS011;29175;51.030;4.606;2024-03-02T14:04:32;6.30;;;1.63;;
43580;SDS011;29175;51.030;4.606;2024-03-02T14:07:02;3.08;;;1.52;;
43580;SDS011;29175;51.030;4.606;2024-03-02T14:09:29;5.70;;;1.65;;
43580;SDS011;29175;51.030;4.606;2024-03-02T14:11:55;4.80;;;1.73;;
43580;SDS011;29175;51.030;4.606;2024-03-02T14:14:23;5.60;;;1.52;;
43580;SDS011;29175;51.030;4.606;2024-03-02T14:16:50;3.63;;;1.50;;
43580;SDS011;29175;51.030;4.606;2024-03-02T14:19:18;2.58;;;1.20;;
43580;SDS011;29175;51.030;4.606;2024-03-02T14:21:45;4.75;;;1.92;;
43580;SDS011;29175;51.030;4.606;2024-03-02T14:24:11;4.82;;;1.83;;
43580;SDS011;29175;51.030;4.606;2024-03-02T14:26:38;4.07;;;1.40;;
43580;SDS011;29175;51.030;4.606;2024-03-02T14:29:06;7.00;;;1.55;;
43580;SDS011;29175;51.030;4.606;2024-03-02T14:31:31;1.77;;;1.17;;
43580;SDS011;29175;51.030;4.606;2024-03-02T14:33:57;3.47;;;1.45;;
43580;SDS011;29175;51.030;4.606;2024-03-02T14:36:25;4.60;;;1.38;;
43580;SDS011;29175;51.030;4.606;2024-03-02T14:38:53;2.65;;;1.20;;
43580;SDS011;29175;51.030;4.606;2024-03-02T14:41:20;4.22;;;1.27;;
43580;SDS011;29175;51.030;4.606;2024-03-02T14:43:46;7.60;;;1.42;;
43580;SDS011;29175;51.030;4.606;2024-03-02T14:46:13;3.08;;;1.30;;
43580;SDS011;29175;51.030;4.606;2024-03-02T14:48:40;3.47;;;1.20;;
43580;SDS011;29175;51.030;4.606;2024-03-02T14:51:07;2.78;;;1.40;;
43580;SDS011;29175;51.030;4.606;2024-03-02T14:53:36;5.95;;;1.50;;
43580;SDS011;29175;51.030;4.606;2024-03-02T14:58:29;2.83;;;1.30;;
43580;SDS011;29175;51.030;4.606;2024-03-02T15:00:55;1.92;;;1.10;;
43580;SDS011;29175;51.030;4.606;2024-03-02T15:03:23;4.93;;;1.55;;
43580;SDS011;29175;51.030;4.606;2024-03-02T15:05:48;4.93;;;1.42;;
43580;SDS011;29175;51.030;4.606;2024-03-02T15:08:17;3.53;;;1.20;;
43580;SDS011;29175;51.030;4.606;2024-03-02T15:10:43;7.85;;;1.70;;
43580;SDS011;29175;51.030;4.606;2024-03-02T15:13:09;4.20;;;1.55;;
43580;SDS011;29175;51.030;4.606;2024-03-02T15:15:36;2.65;;;1.20;;
43580;SDS011;29175;51.030;4.606;2024-03-02T15:18:02;2.70;;;1.52;;
43580;SDS011;29175;51.030;4.606;2024-03-02T15:20:30;7.55;;;1.52;;